Aérodrome :
LOGIN :

S'inscrire | Disclaimer

   EN    FR    IT 

 










Légende :    VFR   VFR Marginal   IFR   IFR Intensif   IFR Très Intensif
Visi : 
Plafond : 
>= 8 km
>= 3000ft
5 à 8 km
1000 à 3000 ft
1500m à 5 km
500 à 1000 ft
800 à 1500m
200 à 500 ft
< 800m
< 200 ft
Symboles :   Orages  Brouillard  Fortes neiges  Fortes précipitations  Vent > 20 kt
SIGMETs :   Divers  Orages  Givrage  Turbulence  Onde Orograph.  Cendres Volcan.







- Altitude de l'aérodrome : 659 ft
- Code IATA : LGG


EBLG - Liège

DERNIER METAR :
  • 261720Z 12004KT 080V160 9999 FEW028TCU 07/M01 Q1013 NOSIG

METARs EXPIRÉS :
  • 261650Z 10006KT 070V140 9999 FEW028 07/M00 Q1013 NOSIG
  • 261620Z 06010KT 040V100 9999 FEW028TCU 07/M00 Q1013 TEMPO 5000 SHRA BKN028CB
  • 261550Z 36011KT 330V050 9999 FEW028CB 08/M00 Q1013 TEMPO 5000 SHRA BKN028CB
  • 261520Z 31011KT 250V340 9999 FEW036CB 08/M01 Q1013 TEMPO 5000 SHRA BKN035CB
  • 261450Z 28009KT 250V310 9999 SCT036TCU 08/M03 Q1012 TEMPO 5000 SHRA BKN035CB
  • 261420Z 32010KT 290V350 9999 -SHRA SCT036TCU 09/M01 Q1012 TEMPO 5000 SHRA BKN035CB

TAF TAF EBLG
Valide du 26 à 12h jusqu'au 27 à 18h UTC


261100Z 2612/2718 32005KT 9999 SCT020CB SCT040
TEMPO 2612/2618 4000 SHRA
PROB30
TEMPO 2612/2617 VRB15G25KT 2000 TSRAGS
TEMPO 2704/2707 2500 BR
TEMPO 2710/2718 3000 SHRAGS
Pas de NOTAMs connus pour ce terrain.



MET'MAP, la Météo Aéronautique d'un coup d'oeil ! - Copyright ORBIFLY Décembre 2007 - Disclaimer

ORBIFLY MET'MAP TEAM :

Programmation & Développement : Alexandra Zaïnal
Conception & Développement : Baudouin d'Aumeries
Co-Programmation & Développement : Marc-Olivier Méhu
Soutien technique & logistique : Manuel Goepfert

Contact : metmap@orbifly.com




SOURCES & CREDITS :

   NOAA